Time;durP1;ratioP1;P1;durP2;ratioP2;P2;SDS_P1;SDS_P2;PMS_P1;PMS_P2;Temp;Humidity;BMP_temperature;BMP_pressure;BME280_temperature;BME280_humidity;BME280_pressure;Samples;Min_cycle;Max_cycle;Signal;HPM_P1;HPM_P2
2023/04/03 07:57:02;;;;;;;6.35;2.35;;;;;;;6.95;64.68;102972.25;6278606;22;20218;-90
2023/04/03 07:59:27;;;;;;;5.68;2.75;;;;;;;6.97;65.20;102914.88;6255480;23;20026;-91
2023/04/03 08:02:07;;;;;;;6.30;2.70;;;;;;;7.45;62.18;102952.69;6254866;23;20012;-90
2023/04/03 08:04:32;;;;;;;4.68;2.35;;;;;;;7.66;60.37;102974.69;6254373;23;20028;-90
2023/04/03 08:07:01;;;;;;;8.02;2.63;;;;;;;7.83;61.04;102930.41;6253693;23;20417;-89
2023/04/03 08:09:32;;;;;;;4.43;2.65;;;;;;;8.30;60.05;102950.41;6255200;23;20004;-90
2023/04/03 08:11:58;;;;;;;4.00;2.20;;;;;;;8.39;57.67;102971.59;6223464;23;20040;-90
2023/04/03 08:14:24;;;;;;;4.93;2.70;;;;;;;8.42;56.28;102958.31;6249588;23;20000;-89
2023/04/03 08:16:54;;;;;;;5.45;2.40;;;;;;;8.62;55.72;102949.28;6247331;23;20034;-89
2023/04/03 08:19:23;;;;;;;4.78;2.10;;;;;;;9.17;55.60;102922.16;6249071;23;20142;-88
2023/04/03 08:21:48;;;;;;;3.65;2.15;;;;;;;9.88;52.81;102969.97;6248568;23;20000;-90
2023/04/03 08:24:13;;;;;;;4.07;2.13;;;;;;;9.43;50.75;102927.16;6249162;23;20004;-89
2023/04/03 08:26:39;;;;;;;5.40;2.63;;;;;;;9.91;50.51;102972.59;6248275;23;20051;-88
2023/04/03 08:29:05;;;;;;;5.15;2.30;;;;;;;10.30;50.16;102979.13;6247453;23;20083;-90
2023/04/03 08:31:31;;;;;;;6.30;2.42;;;;;;;10.41;48.41;102939.91;6248274;23;20713;-89
2023/04/03 08:33:57;;;;;;;3.97;1.90;;;;;;;11.11;49.12;102977.72;6247427;23;20035;-88
2023/04/03 08:36:28;;;;;;;3.85;2.22;;;;;;;11.03;47.90;102950.31;6250174;23;20016;-87
2023/04/03 08:38:55;;;;;;;4.90;2.20;;;;;;;10.86;46.37;102945.31;6252669;23;20059;-89
2023/04/03 08:41:32;;;;;;;5.80;2.40;;;;;;;11.35;48.65;102949.69;6224438;23;20008;-89
2023/04/03 08:44:31;;;;;;;4.32;2.22;;;;;;;12.29;46.83;102987.66;6247036;23;20097;-88
2023/04/03 08:47:11;;;;;;;5.15;1.90;;;;;;;12.53;45.01;102955.00;6245854;23;20008;-88
2023/04/03 08:50:21;;;;;;;3.75;1.98;;;;;;;12.86;45.40;102945.25;6219015;23;20016;-89
2023/04/03 08:53:01;;;;;;;2.30;1.80;;;;;;;12.72;42.67;102939.41;6195334;23;20024;-87
2023/04/03 08:55:41;;;;;;;3.88;1.90;;;;;;;13.10;41.08;102965.09;6170350;23;20269;-89
2023/04/03 08:58:16;;;;;;;3.10;1.75;;;;;;;13.33;40.73;102948.41;6160912;23;20020;-89
2023/04/03 09:00:55;;;;;;;3.40;1.77;;;;;;;13.98;40.04;102984.81;6160666;23;20048;-90
2023/04/03 09:03:24;;;;;;;4.35;1.85;;;;;;;14.75;38.78;102971.63;6184388;23;20013;-90
2023/04/03 09:05:52;;;;;;;4.78;2.13;;;;;;;15.21;35.07;102973.53;6159356;23;20416;-89
2023/04/03 09:08:30;;;;;;;3.45;1.52;;;;;;;15.02;35.58;102975.16;6181486;23;20017;-89
2023/04/03 09:11:16;;;;;;;2.58;1.52;;;;;;;15.13;35.12;102995.31;6176862;23;20805;-89
2023/04/03 09:14:02;;;;;;;2.67;1.58;;;;;;;15.64;36.21;102991.66;6180265;23;20016;-90
2023/04/03 09:16:52;;;;;;;2.25;1.10;;;;;;;15.51;29.38;102986.75;6180542;23;20041;-88
2023/04/03 09:19:38;;;;;;;1.83;1.13;;;;;;;15.81;32.28;102990.13;6158967;23;20048;-90
2023/04/03 09:22:17;;;;;;;3.30;1.48;;;;;;;15.99;31.76;102989.41;6182364;23;20052;-89
2023/04/03 09:48:14;;;;;;;1.55;1.02;;;;;;;18.01;24.56;102985.94;6214206;22;20039;-86
2023/04/03 09:50:48;;;;;;;1.45;0.73;;;;;;;18.19;23.50;102981.50;6235606;23;20026;-87
2023/04/03 09:53:28;;;;;;;1.45;0.80;;;;;;;18.25;22.79;102986.59;6234426;23;20015;-87
2023/04/03 09:55:54;;;;;;;1.65;0.90;;;;;;;18.09;23.01;102985.59;6241004;23;20007;-88
2023/04/03 09:58:24;;;;;;;2.08;1.25;;;;;;;18.01;22.67;102971.59;6240725;23;20058;-88
2023/04/03 10:00:55;;;;;;;1.50;1.00;;;;;;;17.84;21.99;102973.28;6254712;23;20055;-88
2023/04/03 10:03:41;;;;;;;1.92;0.90;;;;;;;18.46;22.75;102967.59;6254375;23;20453;-87
2023/04/03 10:06:23;;;;;;;1.38;1.05;;;;;;;18.61;22.97;102969.53;6257096;23;20361;-87
2023/04/03 10:09:00;;;;;;;1.92;1.00;;;;;;;18.10;24.06;102966.66;6242337;23;20083;-86
2023/04/03 10:11:26;;;;;;;1.92;1.00;;;;;;;18.20;20.48;102948.22;6239383;23;20368;-87
2023/04/03 10:13:53;;;;;;;1.90;0.93;;;;;;;18.20;21.09;102963.50;6237833;23;20008;-85
2023/04/03 10:16:24;;;;;;;3.15;1.10;;;;;;;19.11;22.31;102960.66;6208107;23;20046;-87
2023/04/03 10:19:01;;;;;;;1.55;1.05;;;;;;;19.14;20.90;102973.97;6237793;23;20015;-86
2023/04/03 10:21:52;;;;;;;1.90;1.00;;;;;;;19.31;22.45;102964.94;6235535;23;20818;-86
2023/04/03 10:24:28;;;;;;;1.70;1.00;;;;;;;19.45;20.82;102957.00;6237972;23;20047;-88
2023/04/03 10:27:05;;;;;;;2.13;1.15;;;;;;;19.96;21.73;102959.59;6236976;23;20713;-86
2023/04/03 10:29:47;;;;;;;1.38;0.90;;;;;;;20.05;21.45;102959.06;6235441;23;20070;-87
2023/04/03 10:32:25;;;;;;;2.83;1.20;;;;;;;19.84;21.15;102956.63;6236201;23;20014;-86
2023/04/03 10:35:00;;;;;;;2.17;0.95;;;;;;;19.57;19.50;102947.34;6238233;23;20019;-87
2023/04/03 10:37:38;;;;;;;1.88;1.15;;;;;;;19.98;20.65;102954.94;6239332;23;20083;-87
2023/04/03 10:40:43;;;;;;;2.03;0.95;;;;;;;20.40;21.42;102938.09;6252543;23;20008;-87
2023/04/03 10:43:21;;;;;;;1.58;1.00;;;;;;;19.73;20.13;102937.47;6253312;22;20078;-87
2023/04/03 10:45:55;;;;;;;2.22;0.95;;;;;;;20.65;20.30;102934.81;6265024;22;20024;-88
2023/04/03 10:48:39;;;;;;;1.77;0.95;;;;;;;20.08;19.07;102945.38;6237810;23;20020;-88
2023/04/03 10:51:20;;;;;;;1.33;0.90;;;;;;;20.44;18.48;102915.31;6263342;23;19996;-87
2023/04/03 10:53:56;;;;;;;1.15;0.80;;;;;;;20.42;17.80;102921.75;6259993;22;20226;-86
2023/04/03 10:56:32;;;;;;;1.13;0.90;;;;;;;20.59;18.57;102927.06;6241903;23;20024;-87
2023/04/03 10:59:17;;;;;;;6.85;1.45;;;;;;;20.89;19.39;102914.34;6241447;23;20083;-86
2023/04/03 11:01:46;;;;;;;1.35;1.00;;;;;;;20.14;17.14;102913.44;6215420;23;20004;-88
2023/04/03 11:04:16;;;;;;;1.48;0.88;;;;;;;20.06;17.22;102915.69;6243747;23;20000;-89
2023/04/03 11:06:49;;;;;;;1.92;0.80;;;;;;;19.86;17.17;102914.19;6240760;23;20044;-87
2023/04/03 11:09:28;;;;;;;1.80;1.20;;;;;;;19.88;17.67;102917.66;6241641;23;20008;-88
2023/04/03 11:12:01;;;;;;;1.80;1.00;;;;;;;20.51;17.51;102905.00;6240248;23;20015;-87
2023/04/03 11:14:36;;;;;;;2.65;1.30;;;;;;;21.08;18.19;102907.81;6238169;23;20011;-88
2023/04/03 11:17:11;;;;;;;2.33;1.23;;;;;;;21.40;17.21;102903.06;6242291;23;20510;-86
2023/04/03 11:19:43;;;;;;;1.98;0.98;;;;;;;22.02;16.66;102908.06;6215879;23;20719;-87
2023/04/03 11:22:21;;;;;;;1.70;1.03;;;;;;;21.55;16.41;102902.09;6247806;23;20027;-87
2023/04/03 11:24:56;;;;;;;1.90;1.00;;;;;;;21.14;17.22;102905.56;6243760;23;20397;-88
2023/04/03 11:27:24;;;;;;;1.83;1.15;;;;;;;20.89;17.15;102900.81;6238022;23;20004;-87
2023/04/03 11:29:51;;;;;;;1.92;0.80;;;;;;;21.57;17.46;102904.69;6237137;23;20036;-89
2023/04/03 11:32:41;;;;;;;2.10;0.90;;;;;;;21.84;17.63;102899.31;6237519;23;20328;-89
2023/04/03 11:35:08;;;;;;;1.85;0.80;;;;;;;21.88;15.85;102899.00;6236341;23;20008;-87
2023/04/03 11:37:39;;;;;;;2.00;1.00;;;;;;;21.12;16.11;102896.69;6234761;23;20015;-87
2023/04/03 11:40:17;;;;;;;2.55;1.25;;;;;;;21.19;18.38;102883.59;6236145;23;20011;-88
2023/04/03 11:42:48;;;;;;;1.35;0.82;;;;;;;21.74;16.67;102880.09;6235441;23;20033;-87
2023/04/03 11:45:29;;;;;;;3.53;1.00;;;;;;;21.85;17.20;102890.19;6209945;23;20302;-88
2023/04/03 11:48:01;;;;;;;2.25;1.10;;;;;;;21.47;17.00;102881.88;6234669;22;20035;-88
2023/04/03 11:50:40;;;;;;;3.05;1.02;;;;;;;22.01;18.16;102871.94;6237931;23;20023;-89
2023/04/03 11:53:05;;;;;;;2.30;1.05;;;;;;;22.61;16.60;102876.00;6236410;23;20023;-89
2023/04/03 11:55:30;;;;;;;3.00;1.17;;;;;;;22.67;15.85;102877.44;6240160;23;20349;-88
2023/04/03 11:57:59;;;;;;;1.87;0.90;;;;;;;22.70;16.47;102875.38;6237907;23;20429;-88
2023/04/03 12:00:55;;;;;;;2.30;1.00;;;;;;;23.26;16.76;102884.06;6239872;23;20241;-87
2023/04/03 12:03:24;;;;;;;2.25;1.10;;;;;;;22.63;15.53;102864.06;6236435;23;20004;-88
2023/04/03 12:05:51;;;;;;;2.88;0.98;;;;;;;22.26;15.19;102873.88;6238766;23;20464;-88
2023/04/03 12:08:47;;;;;;;1.35;1.10;;;;;;;23.05;16.80;102862.03;6239443;23;20004;-89
2023/04/03 12:11:12;;;;;;;1.05;0.90;;;;;;;22.50;15.01;102857.78;6214534;23;20341;-90
2023/04/03 12:13:37;;;;;;;1.88;1.00;;;;;;;21.91;14.90;102862.69;6239049;23;19996;-89
2023/04/03 12:16:05;;;;;;;2.40;1.08;;;;;;;22.05;16.72;102861.75;6239862;23;20032;-88
2023/04/03 12:18:53;;;;;;;2.20;1.10;;;;;;;23.55;16.99;102851.16;6238184;23;20023;-90
2023/04/03 12:21:31;;;;;;;2.92;1.20;;;;;;;23.54;15.57;102852.16;6246225;23;20012;-90
2023/04/03 12:24:08;;;;;;;1.40;1.00;;;;;;;22.95;15.77;102858.25;6260557;23;20023;-87
2023/04/03 12:26:45;;;;;;;1.88;1.00;;;;;;;22.76;16.52;102846.91;6259628;23;20008;-89
2023/04/03 12:29:17;;;;;;;1.73;1.17;;;;;;;22.30;15.88;102848.28;6260596;23;19999;-89
2023/04/03 12:32:04;;;;;;;2.90;1.08;;;;;;;22.42;16.90;102852.00;6218785;23;20008;-90
2023/04/03 12:35:26;;;;;;;1.45;1.08;;;;;;;23.40;18.26;102849.56;6242867;23;19996;-90
2023/04/03 12:38:34;;;;;;;2.60;1.00;;;;;;;23.95;17.08;102845.47;6118653;23;20018;-89
2023/04/03 12:41:34;;;;;;;2.45;1.20;;;;;;;22.87;15.86;102852.47;6116806;23;20084;-90
2023/04/03 12:44:24;;;;;;;1.58;1.00;;;;;;;22.60;15.33;102845.28;6116275;23;20583;-89
2023/04/03 12:46:52;;;;;;;1.75;1.08;;;;;;;22.58;15.56;102833.69;6115987;23;20013;-90
2023/04/03 12:49:37;;;;;;;2.22;1.00;;;;;;;22.67;17.48;102834.88;6116516;23;20018;-90
2023/04/03 12:52:25;;;;;;;1.50;1.00;;;;;;;22.75;16.93;102821.63;6117208;23;20009;-90
2023/04/03 12:54:51;;;;;;;2.28;1.10;;;;;;;22.71;16.43;102814.69;6115147;23;20456;-90
2023/04/03 12:57:16;;;;;;;1.73;1.20;;;;;;;22.54;15.85;102818.59;6116937;23;20016;-89
2023/04/03 12:59:46;;;;;;;1.58;1.17;;;;;;;21.78;16.14;102823.81;6116594;23;20026;-91
2023/04/03 13:02:25;;;;;;;3.17;1.50;;;;;;;21.99;17.69;102806.13;6134205;23;20069;-89
2023/04/03 13:04:52;;;;;;;2.17;1.30;;;;;;;21.41;17.60;102807.31;6144084;23;20013;-90
2023/04/03 13:07:40;;;;;;;1.73;1.20;;;;;;;22.66;18.47;102806.00;6144965;23;20014;-90
2023/04/03 13:10:08;;;;;;;4.85;1.40;;;;;;;21.88;17.29;102803.25;6144649;23;20009;-90
2023/04/03 13:12:47;;;;;;;1.80;1.17;;;;;;;21.74;18.00;102809.63;6210220;23;20016;-90
2023/04/03 13:15:24;;;;;;;2.78;1.35;;;;;;;21.11;17.84;102807.44;6211791;23;20020;-90
2023/04/03 13:17:52;;;;;;;2.67;1.38;;;;;;;21.36;16.96;102818.44;6210920;23;20009;-90
2023/04/03 13:20:19;;;;;;;2.47;1.30;;;;;;;21.48;18.11;102805.91;6245072;22;19996;-91
2023/04/03 13:23:17;;;;;;;2.10;1.20;;;;;;;22.25;17.88;102807.06;6262839;23;20004;-90
2023/04/03 13:25:44;;;;;;;2.78;1.35;;;;;;;21.97;17.19;102801.75;6232639;23;20078;-90
2023/04/03 13:28:15;;;;;;;2.67;1.38;;;;;;;21.54;17.48;102805.53;6217986;23;20006;-90
2023/04/03 13:30:53;;;;;;;3.95;1.50;;;;;;;20.71;18.31;102792.84;6245060;23;20015;-90
2023/04/03 13:33:22;;;;;;;2.75;1.40;;;;;;;21.11;18.13;102788.47;6251819;23;20000;-90
2023/04/03 13:35:54;;;;;;;2.70;1.50;;;;;;;21.88;17.81;102787.84;6250701;23;20087;-91
2023/04/03 13:38:19;;;;;;;3.00;1.13;;;;;;;21.69;17.63;102794.63;6252620;23;20012;-91
2023/04/03 13:40:50;;;;;;;4.60;1.40;;;;;;;21.11;17.42;102800.19;6251323;23;20027;-91
2023/04/03 13:43:23;;;;;;;2.25;1.25;;;;;;;21.07;18.46;102782.41;6245421;23;20007;-90
2023/04/03 13:45:57;;;;;;;2.65;1.52;;;;;;;21.27;19.43;102808.16;6240415;23;20004;-91
2023/04/03 13:48:23;;;;;;;1.67;1.30;;;;;;;21.09;18.21;102785.00;6240564;22;20027;-90
2023/04/03 13:51:04;;;;;;;1.85;1.48;;;;;;;21.35;18.21;102802.28;6253187;23;20082;-91
2023/04/03 13:53:31;;;;;;;3.72;1.63;;;;;;;20.75;18.27;102784.44;6254670;23;20000;-91
2023/04/03 13:56:04;;;;;;;2.78;1.60;;;;;;;20.39;19.46;102785.72;6249081;23;20008;-89
2023/04/03 13:58:32;;;;;;;2.63;1.47;;;;;;;19.93;19.52;102778.69;6240111;23;20000;-91
2023/04/03 14:01:21;;;;;;;2.20;1.30;;;;;;;19.87;20.35;102772.69;6238717;23;20037;-92
2023/04/03 14:03:55;;;;;;;3.47;1.60;;;;;;;18.85;19.51;102775.84;6237976;23;20042;-90
2023/04/03 14:06:21;;;;;;;1.98;1.30;;;;;;;18.71;19.41;102784.69;6236482;23;20010;-90
2023/04/03 14:08:48;;;;;;;2.88;1.50;;;;;;;18.66;20.77;102778.66;6237315;23;20011;-90
2023/04/03 14:11:20;;;;;;;3.17;1.70;;;;;;;18.57;20.63;102774.63;6237808;23;20302;-91
2023/04/03 14:13:46;;;;;;;3.15;1.60;;;;;;;18.44;21.16;102768.16;6237318;23;20452;-89
2023/04/03 14:16:14;;;;;;;2.08;1.48;;;;;;;17.94;21.35;102778.91;6237179;23;20035;-91
2023/04/03 14:18:40;;;;;;;3.28;1.73;;;;;;;17.25;22.29;102768.81;6241591;23;20341;-88
2023/04/03 14:21:05;;;;;;;3.85;1.80;;;;;;;16.50;22.98;102766.94;6243134;23;20004;-91
2023/04/03 14:23:32;;;;;;;3.30;1.55;;;;;;;16.12;24.15;102764.13;6244088;23;19999;-88
2023/04/03 14:25:58;;;;;;;2.63;1.50;;;;;;;15.58;25.54;102761.00;6235443;23;20034;-89
2023/04/03 14:28:23;;;;;;;3.92;1.35;;;;;;;14.90;24.80;102772.69;6234770;23;20030;-89
2023/04/03 14:30:50;;;;;;;4.25;1.58;;;;;;;14.16;26.25;102774.47;6236882;23;20353;-88
2023/04/03 14:33:21;;;;;;;2.30;1.38;;;;;;;14.04;27.28;102766.88;6236994;23;20020;-90
2023/04/03 14:35:48;;;;;;;2.65;1.83;;;;;;;13.04;27.14;102766.53;6233354;23;20004;-87
2023/04/03 14:38:25;;;;;;;2.35;1.80;;;;;;;12.53;28.30;102768.03;6208429;23;20375;-87
2023/04/03 14:40:52;;;;;;;3.22;1.67;;;;;;;12.04;29.84;102771.16;6234404;23;20012;-87
2023/04/03 14:43:18;;;;;;;2.72;1.75;;;;;;;11.85;29.83;102760.09;6236070;23;20672;-87
2023/04/03 14:45:43;;;;;;;2.72;1.80;;;;;;;11.74;29.82;102765.66;6236088;23;20083;-89
2023/04/03 14:48:17;;;;;;;3.03;1.77;;;;;;;11.73;31.88;102777.25;6236430;22;20539;-88
2023/04/03 14:50:42;;;;;;;3.50;1.90;;;;;;;11.53;30.75;102768.88;6247431;23;20019;-87
2023/04/03 14:53:12;;;;;;;2.75;1.65;;;;;;;11.59;30.96;102768.75;6256730;23;20060;-87
2023/04/03 14:55:38;;;;;;;3.90;1.80;;;;;;;11.77;31.72;102765.59;6252786;23;20000;-86
2023/04/03 14:58:03;;;;;;;5.38;2.08;;;;;;;11.58;30.17;102762.53;6256034;23;20035;-86
2023/04/03 15:00:28;;;;;;;5.07;2.00;;;;;;;11.48;29.69;102760.97;6245939;23;20137;-88
2023/04/03 15:02:54;;;;;;;3.63;2.03;;;;;;;11.45;30.45;102756.63;6236882;23;20024;-87
2023/04/03 15:05:19;;;;;;;2.58;1.63;;;;;;;11.32;30.83;102757.78;6235920;23;20007;-85
2023/04/03 15:07:52;;;;;;;3.28;1.85;;;;;;;11.24;31.34;102751.75;6236082;23;20413;-87
2023/04/03 15:10:21;;;;;;;2.65;1.67;;;;;;;11.11;32.06;102744.97;6236233;23;20000;-85
2023/04/03 15:12:47;;;;;;;3.90;2.00;;;;;;;11.18;32.54;102746.59;6211257;23;20393;-91
2023/04/03 15:15:15;;;;;;;3.25;1.88;;;;;;;10.94;32.94;102745.34;6239893;23;20012;-91
2023/04/03 15:17:42;;;;;;;2.75;1.90;;;;;;;10.74;32.71;102743.09;6239747;23;20094;-90
2023/04/03 15:20:27;;;;;;;3.38;2.15;;;;;;;10.87;32.91;102749.09;6239842;23;20011;-91
2023/04/03 15:22:53;;;;;;;2.45;1.80;;;;;;;10.64;33.03;102753.09;6210603;23;20000;-89
2023/04/03 15:25:18;;;;;;;3.33;1.83;;;;;;;10.54;33.48;102737.34;6213180;23;20014;-90
2023/04/03 15:27:44;;;;;;;4.40;1.75;;;;;;;10.68;33.84;102743.25;6241958;23;20421;-91
2023/04/03 15:30:19;;;;;;;3.17;2.00;;;;;;;10.77;33.94;102735.06;6239815;23;20004;-93
2023/04/03 15:32:45;;;;;;;2.33;1.80;;;;;;;10.49;32.72;102745.41;6260983;22;20016;-92
2023/04/03 15:35:11;;;;;;;3.60;1.90;;;;;;;10.39;33.57;102735.88;6265168;22;20012;-90
2023/04/03 15:37:36;;;;;;;3.15;1.90;;;;;;;10.03;33.00;102746.25;6266426;22;19999;-94
2023/04/03 15:40:03;;;;;;;3.17;2.22;;;;;;;9.97;33.89;102747.25;6266883;22;19992;-91
2023/04/03 15:42:28;;;;;;;2.63;1.80;;;;;;;10.00;34.38;102746.34;6268607;22;19992;-92
2023/04/03 15:44:54;;;;;;;2.83;2.00;;;;;;;10.02;34.56;102740.97;6267334;22;20023;-88
2023/04/03 15:47:19;;;;;;;3.70;1.77;;;;;;;9.87;34.56;102734.16;6267193;22;20030;-85
2023/04/03 15:49:45;;;;;;;3.05;2.05;;;;;;;10.04;35.79;102742.72;6247684;22;20008;-87
2023/04/03 15:52:10;;;;;;;3.33;2.15;;;;;;;9.86;35.53;102730.59;6243102;23;20008;-87
2023/04/03 15:54:35;;;;;;;4.18;2.00;;;;;;;9.87;35.64;102734.16;6243983;23;20008;-91
2023/04/03 15:57:01;;;;;;;4.43;2.17;;;;;;;9.89;36.04;102741.19;6244736;23;20004;-89
2023/04/03 15:59:26;;;;;;;3.63;2.10;;;;;;;9.76;34.92;102741.44;6244588;23;20574;-90
2023/04/03 16:01:52;;;;;;;3.42;2.20;;;;;;;9.58;35.85;102740.84;6243318;23;20091;-88
2023/04/03 16:04:18;;;;;;;4.28;1.88;;;;;;;9.69;36.46;102735.34;6240946;23;20000;-89
2023/04/03 16:06:44;;;;;;;5.43;2.80;;;;;;;9.63;36.10;102738.13;6240548;23;20007;-89
2023/04/03 16:09:09;;;;;;;3.85;1.90;;;;;;;9.54;35.79;102751.56;6214418;23;20303;-88
2023/04/03 16:11:35;;;;;;;5.75;1.90;;;;;;;9.54;36.87;102735.63;6241481;23;20000;-89
2023/04/03 16:14:01;;;;;;;3.80;1.92;;;;;;;9.35;36.77;102733.22;6241358;23;20429;-90
2023/04/03 16:16:27;;;;;;;4.43;2.25;;;;;;;9.37;36.68;102738.53;6240136;23;20087;-89
2023/04/03 16:18:54;;;;;;;3.03;1.85;;;;;;;9.28;35.96;102744.88;6213592;23;20417;-87
2023/04/03 16:21:20;;;;;;;2.92;2.00;;;;;;;9.12;35.15;102743.34;6240448;23;20014;-88
2023/04/03 16:23:46;;;;;;;6.07;1.90;;;;;;;9.08;36.33;102749.59;6240161;23;20092;-90
2023/04/03 16:26:11;;;;;;;4.25;1.85;;;;;;;9.10;37.41;102743.34;6238985;23;20011;-90
2023/04/03 16:28:36;;;;;;;3.42;2.13;;;;;;;9.05;37.48;102741.66;6239073;23;20088;-90
2023/04/03 16:31:02;;;;;;;3.45;1.48;;;;;;;9.09;37.57;102746.91;6239501;23;20024;-89
2023/04/03 16:33:28;;;;;;;3.50;2.03;;;;;;;8.99;37.23;102753.28;6239071;23;20008;-91
2023/04/03 16:35:54;;;;;;;4.18;1.92;;;;;;;8.92;37.87;102747.16;6239530;23;20750;-88
2023/04/03 16:38:21;;;;;;;3.10;1.73;;;;;;;8.85;37.94;102760.53;6237906;23;20004;-88
2023/04/03 16:40:48;;;;;;;4.78;1.98;;;;;;;8.91;38.81;102755.16;6237966;23;20027;-89
2023/04/03 16:43:13;;;;;;;3.58;1.90;;;;;;;8.87;39.17;102743.69;6238266;23;20008;-89
2023/04/03 16:45:38;;;;;;;2.95;1.88;;;;;;;8.90;39.50;102756.94;6234992;23;20442;-89
2023/04/03 16:48:04;;;;;;;2.65;1.80;;;;;;;8.62;38.84;102739.59;6212171;23;20023;-89
2023/04/03 16:50:29;;;;;;;3.90;1.88;;;;;;;8.64;39.19;102743.97;6238761;23;20504;-89
2023/04/03 16:52:55;;;;;;;3.15;2.10;;;;;;;8.59;39.67;102758.19;6238219;23;20015;-90
2023/04/03 16:55:20;;;;;;;4.43;1.90;;;;;;;8.45;40.32;102756.59;6238207;23;20008;-90
2023/04/03 16:57:46;;;;;;;2.88;2.00;;;;;;;8.27;39.68;102755.88;6237777;23;20019;-89
2023/04/03 17:00:12;;;;;;;4.15;2.25;;;;;;;8.21;39.97;102755.03;6238912;23;20000;-88
2023/04/03 17:02:39;;;;;;;3.10;2.08;;;;;;;8.11;40.54;102755.16;6257790;23;20376;-91
2023/04/03 17:05:05;;;;;;;3.72;1.90;;;;;;;8.09;40.21;102741.03;6228373;23;20000;-89
2023/04/03 17:07:30;;;;;;;3.58;1.90;;;;;;;8.11;40.91;102761.34;6240794;23;20738;-88
2023/04/03 17:09:56;;;;;;;2.28;1.90;;;;;;;7.99;41.16;102746.44;6243679;23;20000;-88
2023/04/03 17:12:21;;;;;;;4.32;2.22;;;;;;;8.02;41.50;102745.50;6248349;23;20067;-91
2023/04/03 17:14:47;;;;;;;3.55;2.30;;;;;;;7.88;41.37;102753.59;6238722;23;20083;-92
2023/04/03 17:17:14;;;;;;;3.78;2.00;;;;;;;7.77;40.40;102752.81;6241145;23;20026;-89
2023/04/03 17:19:41;;;;;;;4.55;1.98;;;;;;;7.61;41.31;102760.03;6242973;23;20010;-91
2023/04/03 17:22:07;;;;;;;4.15;2.10;;;;;;;7.57;41.69;102768.03;6242992;23;20750;-92
2023/04/03 17:24:33;;;;;;;3.75;2.10;;;;;;;7.45;41.74;102759.28;6244683;23;19999;-92
2023/04/03 17:26:58;;;;;;;3.88;1.98;;;;;;;7.47;42.29;102777.78;6244226;23;20042;-92
2023/04/03 17:29:24;;;;;;;4.35;1.90;;;;;;;7.39;42.30;102772.53;6244245;23;20019;-92
2023/04/03 17:31:49;;;;;;;3.67;2.40;;;;;;;7.34;42.91;102771.69;6222900;23;20021;-92
2023/04/03 17:34:14;;;;;;;4.15;2.25;;;;;;;7.23;42.62;102768.22;6266741;23;20023;-92
2023/04/03 17:36:40;;;;;;;3.15;2.00;;;;;;;7.25;43.51;102769.13;6268362;22;20028;-91
2023/04/03 17:39:06;;;;;;;4.05;2.45;;;;;;;7.24;43.83;102762.06;6241613;23;20003;-91
2023/04/03 17:41:32;;;;;;;4.30;2.13;;;;;;;7.01;43.24;102763.97;6266262;22;20031;-88
2023/04/03 17:43:57;;;;;;;3.30;1.83;;;;;;;7.10;43.73;102771.84;6261064;23;20000;-88
2023/04/03 17:46:24;;;;;;;2.22;2.00;;;;;;;6.97;44.05;102773.69;6254170;23;20061;-89
2023/04/03 17:48:50;;;;;;;5.85;2.70;;;;;;;7.01;44.71;102769.25;6249503;22;20012;-90
2023/04/03 17:51:19;;;;;;;2.67;2.22;;;;;;;6.93;44.53;102777.22;6247245;23;20000;-90
2023/04/03 17:53:44;;;;;;;3.58;2.20;;;;;;;6.86;44.58;102764.94;6244676;23;20115;-93
2023/04/03 17:56:22;;;;;;;3.67;1.92;;;;;;;6.75;44.01;102778.19;6244119;23;20358;-91
2023/04/03 17:58:48;;;;;;;5.07;2.30;;;;;;;6.69;44.79;102779.13;6245054;23;20000;-91
2023/04/03 18:01:20;;;;;;;3.50;2.08;;;;;;;6.59;45.00;102774.72;6244061;23;20457;-92
2023/04/03 18:03:47;;;;;;;4.38;2.28;;;;;;;6.46;44.75;102773.00;6244700;23;20035;-90
2023/04/03 18:06:16;;;;;;;3.22;2.03;;;;;;;6.34;45.76;102773.91;6238389;23;20330;-87
2023/04/03 18:08:45;;;;;;;3.33;2.03;;;;;;;6.34;45.29;102778.31;6237719;23;20057;-87
2023/04/03 18:11:12;;;;;;;3.22;2.10;;;;;;;6.28;45.72;102778.34;6237504;23;20004;-86
2023/04/03 18:13:37;;;;;;;2.83;2.00;;;;;;;6.22;45.83;102774.81;6238651;23;20023;-88
2023/04/03 18:16:08;;;;;;;4.40;2.40;;;;;;;6.23;46.60;102778.38;6261208;22;20208;-88
2023/04/03 18:18:33;;;;;;;4.68;2.25;;;;;;;6.14;45.86;102770.44;6264812;22;19988;-87
2023/04/03 18:20:59;;;;;;;3.90;2.15;;;;;;;6.02;46.25;102765.16;6264836;22;20077;-87
2023/04/03 18:23:27;;;;;;;3.90;2.58;;;;;;;5.97;46.91;102768.69;6265021;22;20023;-88
2023/04/03 18:25:53;;;;;;;6.10;2.55;;;;;;;5.88;47.69;102765.16;6264585;22;20004;-87
2023/04/03 18:28:18;;;;;;;6.20;2.63;;;;;;;5.89;47.90;102770.41;6258245;22;20036;-87
2023/04/03 18:30:44;;;;;;;4.10;2.30;;;;;;;5.85;48.09;102773.06;6242215;23;20004;-87
2023/04/03 18:33:09;;;;;;;4.25;2.50;;;;;;;5.81;48.74;102776.59;6243183;23;20015;-87
2023/04/03 18:35:35;;;;;;;3.88;2.47;;;;;;;5.66;48.65;102772.22;6242681;23;20007;-88
2023/04/03 18:38:00;;;;;;;5.13;2.60;;;;;;;5.61;48.97;102771.34;6242306;23;20008;-88
2023/04/03 18:40:25;;;;;;;4.47;2.40;;;;;;;5.55;49.48;102769.53;6240302;23;20012;-87
2023/04/03 18:42:51;;;;;;;5.22;2.40;;;;;;;5.53;49.60;102781.00;6239322;23;20000;-87
2023/04/03 18:45:22;;;;;;;3.90;2.50;;;;;;;5.52;50.53;102788.06;6238570;23;20000;-88
2023/04/03 18:47:47;;;;;;;4.30;2.50;;;;;;;5.48;50.96;102783.66;6238592;22;20326;-87
2023/04/03 18:50:12;;;;;;;3.42;2.58;;;;;;;5.31;50.57;102774.78;6239573;23;20035;-87
2023/04/03 18:52:38;;;;;;;8.13;2.53;;;;;;;5.32;51.45;102782.72;6237718;23;20004;-86
2023/04/03 18:55:05;;;;;;;4.93;2.55;;;;;;;5.30;51.39;102787.13;6236342;23;20008;-87
2023/04/03 18:57:30;;;;;;;5.28;2.75;;;;;;;5.20;51.49;102783.59;6238823;23;20010;-88
2023/04/03 18:59:55;;;;;;;4.10;2.75;;;;;;;5.13;51.40;102787.06;6236305;23;20007;-87
2023/04/03 19:02:23;;;;;;;3.30;2.28;;;;;;;5.15;52.20;102790.63;6237086;23;20007;-88
2023/04/03 19:04:48;;;;;;;3.17;2.70;;;;;;;5.01;51.65;102784.41;6237493;23;20075;-88
2023/04/03 19:07:13;;;;;;;5.80;2.70;;;;;;;5.00;52.27;102787.91;6211313;23;20218;-87
2023/04/03 19:09:39;;;;;;;3.20;2.40;;;;;;;4.98;51.87;102785.28;6237246;23;20012;-88
2023/04/03 19:12:07;;;;;;;5.95;2.75;;;;;;;4.90;51.85;102788.78;6238175;23;20004;-89
2023/04/03 19:14:33;;;;;;;4.78;2.42;;;;;;;4.88;52.04;102791.38;6236925;23;20000;-89
2023/04/03 19:16:58;;;;;;;4.53;2.90;;;;;;;4.82;52.88;102791.38;6237266;23;20042;-87
2023/04/03 19:19:24;;;;;;;5.40;2.72;;;;;;;4.80;52.65;102792.25;6237850;23;20380;-88
2023/04/03 19:21:49;;;;;;;4.68;2.90;;;;;;;4.82;54.00;102807.22;6238182;23;20012;-87
2023/04/03 19:24:15;;;;;;;3.50;2.72;;;;;;;4.71;52.91;102795.72;6247337;23;20007;-90
2023/04/03 19:26:41;;;;;;;5.00;3.13;;;;;;;4.74;52.99;102804.53;6259518;23;20003;-86
2023/04/03 19:29:06;;;;;;;4.72;2.72;;;;;;;4.64;53.67;102796.56;6259990;23;20006;-86
2023/04/03 19:31:33;;;;;;;4.97;2.75;;;;;;;4.69;53.71;102800.13;6249519;23;20004;-88
2023/04/03 19:33:59;;;;;;;6.40;3.00;;;;;;;4.57;53.64;102790.38;6237224;23;20437;-86
2023/04/03 19:36:25;;;;;;;3.75;2.92;;;;;;;4.53;54.00;102798.28;6242846;22;20020;-88
2023/04/03 19:38:50;;;;;;;5.05;2.90;;;;;;;4.49;54.46;102795.63;6236244;23;20147;-89
2023/04/03 19:41:22;;;;;;;4.68;2.72;;;;;;;4.39;54.48;102799.09;6239632;23;20004;-87
2023/04/03 19:43:50;;;;;;;4.32;2.92;;;;;;;4.29;54.92;102788.47;6237365;23;20011;-89
2023/04/03 19:46:17;;;;;;;3.92;2.85;;;;;;;4.25;54.82;102785.78;6239271;23;20311;-87
2023/04/03 19:48:46;;;;;;;4.75;2.80;;;;;;;4.30;55.05;102793.72;6236003;22;20015;-87
2023/04/03 19:51:11;;;;;;;7.18;3.20;;;;;;;4.21;55.57;102786.66;6236308;23;20015;-89
2023/04/03 19:53:36;;;;;;;5.40;3.00;;;;;;;4.19;55.72;102785.78;6208660;23;20084;-88
2023/04/03 19:56:02;;;;;;;4.43;2.67;;;;;;;4.15;55.72;102796.28;6237332;23;20008;-87
2023/04/03 19:58:28;;;;;;;3.67;2.65;;;;;;;4.15;56.33;102793.66;6236527;23;20535;-86
2023/04/03 20:00:55;;;;;;;5.07;3.40;;;;;;;4.14;56.19;102798.03;6236924;23;20421;-86
2023/04/03 20:03:20;;;;;;;5.20;2.78;;;;;;;4.05;56.30;102786.53;6235233;23;20004;-88
2023/04/03 20:05:46;;;;;;;5.68;3.05;;;;;;;4.05;56.55;102789.16;6237642;23;20080;-87